Terminal Aerodrome Forecast
Issued by NWS Greer, SC

Home | Current Version | Previous Version | Text Only | Print | Product List | Glossary On
Versions: 1 2 3 4 5 6 7 8 9 10 11 12 13 14 15 16 17 18 19 20
000
FTUS42 KGSP 232320
TAFGSP
TAF
KGSP 232320Z 2400/2424 04003KT P6SM SCT060
      TEMPO 2400/2404 BKN060
     FM240400 06003KT P6SM BKN070
     FM240900 09003KT 2SM BR BKN003
     FM241400 17005KT P6SM BKN008
     FM241600 18005KT P6SM BKN020
     FM241800 18008G16KT P6SM SCT060=

USA.gov is the U.S. government's official web portal to all federal, state and local government web resources and services.